createdAt,value
2022-11-13T00:00:05.293Z,44.53
2022-11-13T00:01:05.225Z,44.12
2022-11-13T00:02:05.282Z,43.82
2022-11-13T00:03:05.193Z,43.51
2022-11-13T00:04:05.191Z,43.30
2022-11-13T00:05:05.284Z,40.03
2022-11-13T00:06:05.138Z,38.39
2022-11-13T00:07:05.157Z,38.08
2022-11-13T00:08:05.104Z,39.49
2022-11-13T00:09:05.079Z,39.28
2022-11-13T00:10:05.093Z,37.75
2022-11-13T00:11:05.056Z,38.39
2022-11-13T00:12:05.021Z,38.57
2022-11-13T00:13:05.015Z,37.96
2022-11-13T00:14:04.997Z,38.67
2022-11-13T00:15:04.999Z,37.45
2022-11-13T00:16:37.353Z,37.85
2022-11-13T00:17:04.948Z,38.78
2022-11-13T00:18:04.938Z,40.28
2022-11-13T00:19:04.955Z,41.71
2022-11-13T00:20:04.962Z,42.02
2022-11-13T00:21:04.874Z,42.35
2022-11-13T00:22:04.882Z,43.47
2022-11-13T00:23:04.841Z,42.76
2022-11-13T00:24:04.832Z,43.69
2022-11-13T00:25:04.924Z,43.49
2022-11-13T00:26:04.845Z,42.97
2022-11-13T00:27:04.786Z,42.97
2022-11-13T00:28:04.760Z,42.47
2022-11-13T00:29:04.735Z,43.29
2022-11-13T00:30:04.776Z,42.90
2022-11-13T00:31:04.702Z,42.90
2022-11-13T00:32:05.713Z,44.43
2022-11-13T00:33:04.686Z,44.94
2022-11-13T00:34:26.050Z,45.78
2022-11-13T00:35:06.680Z,46.19
2022-11-13T00:36:04.641Z,46.29
2022-11-13T00:37:04.613Z,46.70
2022-11-13T00:38:04.629Z,47.64
2022-11-13T00:39:04.571Z,46.49
2022-11-13T00:40:04.586Z,48.35
2022-11-13T00:41:04.611Z,48.66
2022-11-13T00:42:04.519Z,48.25
2022-11-13T00:43:04.501Z,48.17
2022-11-13T00:44:04.519Z,48.27
2022-11-13T00:45:04.509Z,48.07
2022-11-13T00:46:05.507Z,49.71
2022-11-13T00:47:04.487Z,48.38
2022-11-13T00:48:04.416Z,48.40
2022-11-13T00:49:04.392Z,48.50
2022-11-13T00:50:04.407Z,49.01
2022-11-13T00:51:04.371Z,47.91
2022-11-13T00:52:04.426Z,47.48
2022-11-13T00:53:04.327Z,46.76
2022-11-13T00:54:04.319Z,46.07
2022-11-13T00:55:04.328Z,48.32
2022-11-13T00:56:04.287Z,46.89
2022-11-13T00:57:04.258Z,47.71
2022-11-13T00:58:04.247Z,48.09
2022-11-13T00:59:04.227Z,46.99
2022-11-13T01:00:04.240Z,46.66
2022-11-13T01:01:04.202Z,46.53
2022-11-13T01:02:04.221Z,46.74
2022-11-13T01:03:04.154Z,47.86
2022-11-13T01:04:04.142Z,48.05
2022-11-13T01:05:04.150Z,48.27
2022-11-13T01:06:04.115Z,48.68
2022-11-13T01:07:04.136Z,47.86
2022-11-13T01:08:04.067Z,47.35
2022-11-13T01:09:04.068Z,48.27
2022-11-13T01:10:04.095Z,48.38
2022-11-13T01:11:04.026Z,48.09
2022-11-13T01:12:04.008Z,48.81
2022-11-13T01:13:04.058Z,49.52
2022-11-13T01:14:04.972Z,49.11
2022-11-13T01:15:04.011Z,49.44
2022-11-13T01:16:03.968Z,49.85
2022-11-13T01:17:03.921Z,50.47
2022-11-13T01:18:03.894Z,50.78
2022-11-13T01:19:03.887Z,51.39
2022-11-13T01:20:03.900Z,51.10
2022-11-13T01:21:03.857Z,51.10
2022-11-13T01:22:03.838Z,51.10
2022-11-13T01:23:03.818Z,52.03
2022-11-13T01:24:03.809Z,51.85
2022-11-13T01:25:03.834Z,51.44
2022-11-13T01:26:03.775Z,52.56
2022-11-13T01:27:03.755Z,52.87
2022-11-13T01:28:03.741Z,51.13
2022-11-13T01:29:03.796Z,50.62
2022-11-13T01:30:03.734Z,50.29
2022-11-13T01:31:03.680Z,50.42
2022-11-13T01:32:03.665Z,49.98
2022-11-13T01:33:03.636Z,49.65
2022-11-13T01:34:03.627Z,48.83
2022-11-13T01:35:03.637Z,49.83
2022-11-13T01:36:03.587Z,48.81
2022-11-13T01:37:03.592Z,48.17
2022-11-13T01:38:03.560Z,48.99
2022-11-13T01:39:03.541Z,48.17
2022-11-13T01:40:03.547Z,48.17
2022-11-13T01:41:03.509Z,47.85
2022-11-13T01:42:03.488Z,48.48
2022-11-13T01:43:03.480Z,48.66
2022-11-13T01:44:03.444Z,48.86
2022-11-13T01:45:03.541Z,48.15
2022-11-13T01:46:03.419Z,48.35
2022-11-13T01:47:03.418Z,49.38
2022-11-13T01:48:03.619Z,49.38
2022-11-13T01:49:03.369Z,49.17
2022-11-13T01:50:03.434Z,49.58
2022-11-13T01:51:03.335Z,49.48
2022-11-13T01:52:03.306Z,49.17
2022-11-13T01:53:03.295Z,49.48
2022-11-13T01:54:03.278Z,49.27
2022-11-13T01:55:03.288Z,49.58
2022-11-13T01:56:03.235Z,49.25
2022-11-13T01:57:03.222Z,50.91
2022-11-13T01:58:03.205Z,49.89
2022-11-13T01:59:03.197Z,50.20
2022-11-13T02:00:03.210Z,49.89
2022-11-13T02:01:03.237Z,49.89
2022-11-13T02:02:03.179Z,50.40
2022-11-13T02:03:03.122Z,50.50
2022-11-13T02:04:03.122Z,50.20
2022-11-13T02:05:03.130Z,49.89
2022-11-13T02:06:03.079Z,49.50
2022-11-13T02:07:03.087Z,49.58
2022-11-13T02:08:03.046Z,50.63
2022-11-13T02:09:03.027Z,50.91
2022-11-13T02:10:03.051Z,49.81
2022-11-13T02:11:02.981Z,48.89
2022-11-13T02:12:02.972Z,49.81
2022-11-13T02:13:02.954Z,49.19
2022-11-13T02:14:02.947Z,49.40
2022-11-13T02:15:02.950Z,49.71
2022-11-13T02:16:02.902Z,49.81
2022-11-13T02:17:02.957Z,49.50
2022-11-13T02:18:02.881Z,49.91
2022-11-13T02:19:02.878Z,50.12
2022-11-13T02:20:02.869Z,50.52
2022-11-13T02:21:02.851Z,50.52
2022-11-13T02:22:02.800Z,50.22
2022-11-13T02:23:02.789Z,50.14
2022-11-13T02:24:02.767Z,51.26
2022-11-13T02:25:02.777Z,52.49
2022-11-13T02:26:02.726Z,52.80
2022-11-13T02:27:02.710Z,52.72
2022-11-13T02:28:02.694Z,52.59
2022-11-13T02:29:02.675Z,52.51
2022-11-13T02:30:02.707Z,53.13
2022-11-13T02:31:02.687Z,53.95
2022-11-13T02:32:02.648Z,53.85
2022-11-13T02:33:02.678Z,53.85
2022-11-13T02:34:02.587Z,53.95
2022-11-13T02:35:02.606Z,53.52
2022-11-13T02:36:02.561Z,52.80
2022-11-13T02:37:02.534Z,53.00
2022-11-13T02:38:02.539Z,52.57
2022-11-13T02:39:02.499Z,52.67
2022-11-13T02:40:02.504Z,52.37
2022-11-13T02:41:02.502Z,52.55
2022-11-13T02:42:02.458Z,52.14
2022-11-13T02:43:02.436Z,52.11
2022-11-13T02:44:02.429Z,52.22
2022-11-13T02:45:02.394Z,51.91
2022-11-13T02:46:02.421Z,52.42
2022-11-13T02:47:02.363Z,52.09
2022-11-13T02:48:02.347Z,52.32
2022-11-13T02:49:02.425Z,51.07
2022-11-13T02:50:02.313Z,51.27
2022-11-13T02:51:02.322Z,51.70
2022-11-13T02:52:02.273Z,50.99
2022-11-13T02:53:02.262Z,51.12
2022-11-13T02:54:02.256Z,51.04
2022-11-13T02:55:02.231Z,51.04
2022-11-13T02:56:02.241Z,51.57
2022-11-13T02:57:02.207Z,52.70
2022-11-13T02:58:02.171Z,52.42
2022-11-13T02:59:02.161Z,52.62
2022-11-13T03:00:02.137Z,52.95
2022-11-13T03:01:02.146Z,52.97
2022-11-13T03:02:02.160Z,52.85
2022-11-13T03:03:02.092Z,52.87
2022-11-13T03:04:02.059Z,53.28
2022-11-13T03:05:11.879Z,54.21
2022-11-13T03:06:04.067Z,54.64
2022-11-13T03:07:02.075Z,54.44
2022-11-13T03:08:01.992Z,55.26
2022-11-13T03:09:02.007Z,54.74
2022-11-13T03:10:01.997Z,54.95
2022-11-13T03:11:01.966Z,54.95
2022-11-13T03:12:01.924Z,56.62
2022-11-13T03:13:01.908Z,56.28
2022-11-13T03:14:01.901Z,57.00
2022-11-13T03:15:01.914Z,56.49
2022-11-13T03:16:02.862Z,57.13
2022-11-13T03:17:01.840Z,56.82
2022-11-13T03:18:01.825Z,56.41
2022-11-13T03:19:02.819Z,57.03
2022-11-13T03:20:01.820Z,57.64
2022-11-13T03:21:01.845Z,57.64
2022-11-13T03:22:01.761Z,57.43
2022-11-13T03:23:01.750Z,58.15
2022-11-13T03:24:01.724Z,58.07
2022-11-13T03:25:06.033Z,58.26
2022-11-13T03:26:02.677Z,59.08
2022-11-13T03:27:02.686Z,59.08
2022-11-13T03:28:01.648Z,58.46
2022-11-13T03:29:01.629Z,59.20
2022-11-13T03:30:01.668Z,59.52
2022-11-13T03:31:01.599Z,59.62
2022-11-13T03:32:01.595Z,59.52
2022-11-13T03:33:01.579Z,60.23
2022-11-13T03:34:01.566Z,60.85
2022-11-13T03:35:01.585Z,61.08
2022-11-13T03:36:01.507Z,61.70
2022-11-13T03:37:01.571Z,61.08
2022-11-13T03:38:01.475Z,61.39
2022-11-13T03:39:01.465Z,61.39
2022-11-13T03:40:01.482Z,61.80
2022-11-13T03:41:01.430Z,61.42
2022-11-13T03:42:01.406Z,60.57
2022-11-13T03:43:01.387Z,60.26
2022-11-13T03:44:02.378Z,60.26
2022-11-13T03:45:01.380Z,60.36
2022-11-13T03:46:01.343Z,60.26
2022-11-13T03:47:01.327Z,59.82
2022-11-13T03:48:01.331Z,59.54
2022-11-13T03:49:01.284Z,59.72
2022-11-13T03:50:01.298Z,59.52
2022-11-13T03:51:01.253Z,59.11
2022-11-13T03:52:02.239Z,58.77
2022-11-13T03:53:01.292Z,57.23
2022-11-13T03:54:01.231Z,56.41
2022-11-13T03:55:01.221Z,56.28
2022-11-13T03:56:01.189Z,55.36
2022-11-13T03:57:01.155Z,55.26
2022-11-13T03:58:01.144Z,54.23
2022-11-13T03:59:01.137Z,53.18
2022-11-13T04:00:01.149Z,53.18
2022-11-13T04:01:01.126Z,52.87
2022-11-13T04:02:01.113Z,52.44
2022-11-13T04:03:01.071Z,52.03
2022-11-13T04:04:01.080Z,51.62
2022-11-13T04:05:01.060Z,52.23
2022-11-13T04:06:01.005Z,52.72
2022-11-13T04:07:00.996Z,52.44
2022-11-13T04:08:00.969Z,52.85
2022-11-13T04:09:01.020Z,52.44
2022-11-13T04:10:01.025Z,52.64
2022-11-13T04:11:00.918Z,51.72
2022-11-13T04:12:00.903Z,51.62
2022-11-13T04:13:00.911Z,52.34
2022-11-13T04:14:00.859Z,52.13
2022-11-13T04:15:00.887Z,51.72
2022-11-13T04:16:00.840Z,52.03
2022-11-13T04:17:00.819Z,51.82
2022-11-13T04:18:01.800Z,52.44
2022-11-13T04:19:00.780Z,52.23
2022-11-13T04:20:00.841Z,52.95
2022-11-13T04:21:00.754Z,52.95
2022-11-13T04:22:00.780Z,53.56
2022-11-13T04:23:00.715Z,54.08
2022-11-13T04:24:00.796Z,54.41
2022-11-13T04:25:00.789Z,54.82
2022-11-13T04:26:00.675Z,55.02
2022-11-13T04:27:00.672Z,54.82
2022-11-13T04:28:00.664Z,54.92
2022-11-13T04:29:00.634Z,55.02
2022-11-13T04:30:00.655Z,54.72
2022-11-13T04:31:00.595Z,54.44
2022-11-13T04:32:00.564Z,54.44
2022-11-13T04:33:00.546Z,54.44
2022-11-13T04:34:00.511Z,54.44
2022-11-13T04:35:00.527Z,55.77
2022-11-13T04:36:00.517Z,55.87
2022-11-13T04:37:00.466Z,56.38
2022-11-13T04:38:00.442Z,56.71
2022-11-13T04:39:00.436Z,56.82
2022-11-13T04:40:00.453Z,56.90
2022-11-13T04:41:00.460Z,56.49
2022-11-13T04:42:00.375Z,57.10
2022-11-13T04:43:00.367Z,57.10
2022-11-13T04:44:00.337Z,56.79
2022-11-13T04:45:00.339Z,57.13
2022-11-13T04:46:00.288Z,56.79
2022-11-13T04:47:00.286Z,56.59
2022-11-13T04:48:00.277Z,57.00
2022-11-13T04:49:00.289Z,57.95
2022-11-13T04:50:00.267Z,57.10
2022-11-13T04:51:00.220Z,56.59
2022-11-13T04:52:00.196Z,56.49
2022-11-13T04:53:00.182Z,56.59
2022-11-13T04:54:00.160Z,56.79
2022-11-13T04:55:00.190Z,56.59
2022-11-13T04:56:00.121Z,57.31
2022-11-13T04:57:00.176Z,57.10
2022-11-13T04:58:00.097Z,56.79
2022-11-13T04:59:00.083Z,57.41
2022-11-13T05:00:00.097Z,57.51
2022-11-13T05:01:00.034Z,57.51
2022-11-13T05:02:00.078Z,57.51
2022-11-13T05:03:00.023Z,57.51
2022-11-13T05:03:59.990Z,57.54
2022-11-13T05:05:04.714Z,57.43
2022-11-13T05:06:01.959Z,58.67
2022-11-13T05:06:59.944Z,59.48
2022-11-13T05:07:59.923Z,59.48
2022-11-13T05:09:00.006Z,60.72
2022-11-13T05:09:59.917Z,62.56
2022-11-13T05:10:59.865Z,62.59
2022-11-13T05:11:59.850Z,62.59
2022-11-13T05:12:59.901Z,62.29
2022-11-13T05:14:03.494Z,61.67
2022-11-13T05:15:00.832Z,61.60
2022-11-13T05:15:59.780Z,62.90
2022-11-13T05:16:59.775Z,63.34
2022-11-13T05:17:59.739Z,65.39
2022-11-13T05:18:59.741Z,66.11
2022-11-13T05:19:59.747Z,65.63
2022-11-13T05:20:59.705Z,65.42
2022-11-13T05:21:59.676Z,65.42
2022-11-13T05:22:59.669Z,65.53
2022-11-13T05:23:59.653Z,65.42
2022-11-13T05:24:59.652Z,65.22
2022-11-13T05:25:59.601Z,65.53
2022-11-13T05:26:59.595Z,65.53
2022-11-13T05:27:59.641Z,65.63
2022-11-13T05:28:59.625Z,65.42
2022-11-13T05:29:59.572Z,65.63
2022-11-13T05:30:59.521Z,65.32
2022-11-13T05:31:59.496Z,65.63
2022-11-13T05:32:59.510Z,66.25
2022-11-13T05:34:05.339Z,65.73
2022-11-13T05:35:01.496Z,65.32
2022-11-13T05:35:59.428Z,65.50
2022-11-13T05:36:59.419Z,64.98
2022-11-13T05:37:59.393Z,64.57
2022-11-13T05:38:59.413Z,65.73
2022-11-13T05:39:59.393Z,65.53
2022-11-13T05:40:59.345Z,65.53
2022-11-13T05:41:59.338Z,65.42
2022-11-13T05:42:59.311Z,65.01
2022-11-13T05:43:59.941Z,65.53
2022-11-13T05:45:00.373Z,65.22
2022-11-13T05:45:59.268Z,66.14
2022-11-13T05:46:59.238Z,66.66
2022-11-13T05:47:59.221Z,66.14
2022-11-13T05:49:00.205Z,66.35
2022-11-13T05:49:59.214Z,66.04
2022-11-13T05:50:59.165Z,66.35
2022-11-13T05:51:59.156Z,65.73
2022-11-13T05:52:59.131Z,66.55
2022-11-13T05:53:59.124Z,65.22
2022-11-13T05:54:59.133Z,66.55
2022-11-13T05:55:59.078Z,65.63
2022-11-13T05:56:59.060Z,65.42
2022-11-13T05:57:59.049Z,65.32
2022-11-13T05:58:59.027Z,64.70
2022-11-13T05:59:59.053Z,65.12
2022-11-13T06:00:59.069Z,65.53
2022-11-13T06:01:59.021Z,66.14
2022-11-13T06:02:58.955Z,67.58
2022-11-13T06:03:58.941Z,67.58
2022-11-13T06:04:58.946Z,68.10
2022-11-13T06:05:58.903Z,67.48
2022-11-13T06:06:58.913Z,65.63
2022-11-13T06:07:58.857Z,65.63
2022-11-13T06:08:59.881Z,64.50
2022-11-13T06:09:58.834Z,63.68
2022-11-13T06:10:58.838Z,63.78
2022-11-13T06:11:58.791Z,63.06
2022-11-13T06:12:58.783Z,63.06
2022-11-13T06:13:58.756Z,62.01
2022-11-13T06:14:58.779Z,63.34
2022-11-13T06:16:31.171Z,63.85
2022-11-13T06:16:58.767Z,63.13
2022-11-13T06:17:58.693Z,61.67
2022-11-13T06:18:58.681Z,61.67
2022-11-13T06:19:58.709Z,62.15
2022-11-13T06:20:58.676Z,63.07
2022-11-13T06:21:58.626Z,62.39
2022-11-13T06:22:58.607Z,60.54
2022-11-13T06:23:58.594Z,59.80
2022-11-13T06:24:58.612Z,56.30
2022-11-13T06:25:58.587Z,55.08
2022-11-13T06:26:58.547Z,55.90
2022-11-13T06:27:58.546Z,56.51
2022-11-13T06:28:58.508Z,56.71
2022-11-13T06:29:58.486Z,56.62
2022-11-13T06:30:58.512Z,57.13
2022-11-13T06:31:58.543Z,57.33
2022-11-13T06:32:58.437Z,57.13
2022-11-13T06:33:58.442Z,57.33
2022-11-13T06:34:58.406Z,56.51
2022-11-13T06:35:58.416Z,56.51
2022-11-13T06:36:59.168Z,56.30
2022-11-13T06:37:58.355Z,56.71
2022-11-13T06:38:58.377Z,56.51
2022-11-13T06:39:58.320Z,56.71
2022-11-13T06:40:58.323Z,56.38
2022-11-13T06:41:58.280Z,55.90
2022-11-13T06:42:58.255Z,54.74
2022-11-13T06:44:02.372Z,54.74
2022-11-13T06:45:00.247Z,54.64
2022-11-13T06:45:58.295Z,55.05
2022-11-13T06:46:58.204Z,55.46
2022-11-13T06:47:58.240Z,55.46
2022-11-13T06:48:58.176Z,54.10
2022-11-13T06:49:58.150Z,53.80
2022-11-13T06:50:58.152Z,53.18
2022-11-13T06:51:58.125Z,52.85
2022-11-13T06:52:58.102Z,52.54
2022-11-13T06:53:58.082Z,52.51
2022-11-13T06:54:58.065Z,52.00
2022-11-13T06:55:58.071Z,51.14
2022-11-13T06:56:58.025Z,50.04
2022-11-13T06:57:58.001Z,49.57
2022-11-13T06:58:58.009Z,47.87
2022-11-13T06:59:57.974Z,47.21
2022-11-13T07:00:58.044Z,45.93
2022-11-13T07:01:57.944Z,45.17
2022-11-13T07:02:57.911Z,44.62
2022-11-13T07:03:57.963Z,44.48
2022-11-13T07:04:57.907Z,43.73
2022-11-13T07:05:57.895Z,43.61
2022-11-13T07:06:57.954Z,43.59
2022-11-13T07:07:57.829Z,42.55
2022-11-13T07:08:57.808Z,42.43
2022-11-13T07:09:57.808Z,41.83
2022-11-13T07:10:57.810Z,41.20
2022-11-13T07:11:57.760Z,40.17
2022-11-13T07:12:58.750Z,39.65
2022-11-13T07:13:57.732Z,40.03
2022-11-13T07:14:57.705Z,39.11
2022-11-13T07:15:57.717Z,38.28
2022-11-13T07:17:09.231Z,38.05
2022-11-13T07:17:59.683Z,36.72
2022-11-13T07:18:57.638Z,36.60
2022-11-13T07:19:57.686Z,36.29
2022-11-13T07:20:57.633Z,35.35
2022-11-13T07:21:57.585Z,35.43
2022-11-13T07:22:57.583Z,35.63
2022-11-13T07:23:57.554Z,35.69
2022-11-13T07:24:57.528Z,35.69
2022-11-13T07:25:57.565Z,36.70
2022-11-13T07:26:57.492Z,36.50
2022-11-13T07:27:57.491Z,35.98
2022-11-13T07:28:57.474Z,36.60
2022-11-13T07:30:02.305Z,36.90
2022-11-13T07:30:59.479Z,36.48
2022-11-13T07:31:57.449Z,36.48
2022-11-13T07:32:57.406Z,36.58
2022-11-13T07:33:57.376Z,36.38
2022-11-13T07:34:57.369Z,36.58
2022-11-13T07:35:57.455Z,35.88
2022-11-13T07:36:57.335Z,36.46
2022-11-13T07:37:57.307Z,35.64
2022-11-13T07:39:00.220Z,35.23
2022-11-13T07:39:58.277Z,35.93
2022-11-13T07:40:57.305Z,34.93
2022-11-13T07:41:57.273Z,34.43
2022-11-13T07:42:57.240Z,35.05
2022-11-13T07:43:57.222Z,37.16
2022-11-13T07:44:57.209Z,37.80
2022-11-13T07:45:57.265Z,38.64
2022-11-13T07:46:57.163Z,39.36
2022-11-13T07:47:57.161Z,39.40
2022-11-13T07:48:57.141Z,39.22
2022-11-13T07:50:04.393Z,40.24
2022-11-13T07:50:59.211Z,41.09
2022-11-13T07:51:57.098Z,41.00
2022-11-13T07:52:57.081Z,41.02
2022-11-13T07:53:57.049Z,41.42
2022-11-13T07:54:57.060Z,40.23
2022-11-13T07:55:57.053Z,40.14
2022-11-13T07:56:57.009Z,40.44
2022-11-13T07:57:56.985Z,41.02
2022-11-13T07:58:56.983Z,40.92
2022-11-13T07:59:56.961Z,41.42
2022-11-13T08:00:57.030Z,41.33
2022-11-13T08:01:56.929Z,40.10
2022-11-13T08:02:56.899Z,40.10
2022-11-13T08:03:56.899Z,40.06
2022-11-13T08:04:56.871Z,39.94
2022-11-13T08:05:56.901Z,39.72
2022-11-13T08:06:56.944Z,38.68
2022-11-13T08:07:56.834Z,37.96
2022-11-13T08:08:57.813Z,36.90
2022-11-13T08:09:56.792Z,36.46
2022-11-13T08:10:56.797Z,36.03
2022-11-13T08:11:56.762Z,35.31
2022-11-13T08:12:56.751Z,34.28
2022-11-13T08:13:56.716Z,34.56
2022-11-13T08:14:56.701Z,34.55
2022-11-13T08:15:56.736Z,34.34
2022-11-13T08:16:56.687Z,33.53
2022-11-13T08:17:56.652Z,33.53
2022-11-13T08:18:56.645Z,32.95
2022-11-13T08:19:56.617Z,33.15
2022-11-13T08:20:56.633Z,33.56
2022-11-13T08:21:56.584Z,34.18
2022-11-13T08:22:56.643Z,34.98
2022-11-13T08:23:56.550Z,35.30
2022-11-13T08:24:56.558Z,35.10
2022-11-13T08:25:56.563Z,35.49
2022-11-13T08:26:56.558Z,34.89
2022-11-13T08:27:56.500Z,34.89
2022-11-13T08:28:56.489Z,35.39
2022-11-13T08:29:56.475Z,35.18
2022-11-13T08:30:56.480Z,35.68
2022-11-13T08:31:56.426Z,35.14
2022-11-13T08:32:56.425Z,35.23
2022-11-13T08:33:56.391Z,34.61
2022-11-13T08:34:56.392Z,34.28
2022-11-13T08:35:56.403Z,32.17
2022-11-13T08:36:56.359Z,32.64
2022-11-13T08:37:56.340Z,32.53
2022-11-13T08:38:56.411Z,32.20
2022-11-13T08:39:56.321Z,32.69
2022-11-13T08:40:56.327Z,31.98
2022-11-13T08:41:56.287Z,32.39
2022-11-13T08:42:56.255Z,32.29
2022-11-13T08:43:56.254Z,32.69
2022-11-13T08:44:56.229Z,31.18
2022-11-13T08:45:56.240Z,30.19
2022-11-13T08:46:56.195Z,30.21
2022-11-13T08:47:56.182Z,29.81
2022-11-13T08:48:56.177Z,29.20
2022-11-13T08:49:56.147Z,29.20
2022-11-13T08:50:56.158Z,29.80
2022-11-13T08:51:56.115Z,29.20
2022-11-13T08:52:56.107Z,31.47
2022-11-13T08:53:56.075Z,32.06
2022-11-13T08:54:56.142Z,32.54
2022-11-13T08:55:56.080Z,30.65
2022-11-13T08:56:57.956Z,32.02
2022-11-13T08:57:57.022Z,33.61
2022-11-13T08:58:55.997Z,34.30
2022-11-13T08:59:55.983Z,34.20
2022-11-13T09:00:55.995Z,34.81
2022-11-13T09:01:56.945Z,33.94
2022-11-13T09:02:55.940Z,34.05
2022-11-13T09:03:55.997Z,34.56
2022-11-13T09:04:55.955Z,36.19
2022-11-13T09:05:55.914Z,36.19
2022-11-13T09:06:55.902Z,36.90
2022-11-13T09:07:55.952Z,37.30
2022-11-13T09:08:55.852Z,37.23
2022-11-13T09:09:55.857Z,37.32
2022-11-13T09:10:55.900Z,37.83
2022-11-13T09:11:55.782Z,37.13
2022-11-13T09:12:55.777Z,37.34
2022-11-13T09:13:55.756Z,36.42
2022-11-13T09:14:55.749Z,35.92
2022-11-13T09:15:55.758Z,35.03
2022-11-13T09:16:55.714Z,35.13
2022-11-13T09:17:55.688Z,33.93
2022-11-13T09:18:55.677Z,34.84
2022-11-13T09:19:58.393Z,34.55
2022-11-13T09:20:56.681Z,34.06
2022-11-13T09:21:55.619Z,34.36
2022-11-13T09:22:55.606Z,34.28
2022-11-13T09:23:55.606Z,34.09
2022-11-13T09:24:55.570Z,34.50
2022-11-13T09:25:55.589Z,35.69
2022-11-13T09:26:55.618Z,35.39
2022-11-13T09:27:55.535Z,35.10
2022-11-13T09:28:55.553Z,34.99
2022-11-13T09:29:55.911Z,34.58
2022-11-13T09:30:56.520Z,35.26
2022-11-13T09:31:55.459Z,35.74
2022-11-13T09:32:55.441Z,34.83
2022-11-13T09:33:55.432Z,34.59
2022-11-13T09:34:55.418Z,34.89
2022-11-13T09:35:55.437Z,34.89
2022-11-13T09:36:55.401Z,34.20
2022-11-13T09:37:55.363Z,34.53
2022-11-13T09:38:55.353Z,33.83
2022-11-13T09:39:55.342Z,34.03
2022-11-13T09:40:55.342Z,34.15
2022-11-13T09:41:55.301Z,34.34
2022-11-13T09:42:55.350Z,34.06
2022-11-13T09:43:59.500Z,34.27
2022-11-13T09:44:56.393Z,34.66
2022-11-13T09:45:55.269Z,33.17
2022-11-13T09:46:55.217Z,34.55
2022-11-13T09:47:55.219Z,32.93
2022-11-13T09:48:55.199Z,33.37
2022-11-13T09:49:55.201Z,32.95
2022-11-13T09:50:55.186Z,34.06
2022-11-13T09:51:55.141Z,34.66
2022-11-13T09:52:55.139Z,34.28
2022-11-13T09:53:55.108Z,34.48
2022-11-13T09:54:55.105Z,35.79
2022-11-13T09:55:55.118Z,35.71
2022-11-13T09:56:55.066Z,36.41
2022-11-13T09:57:55.072Z,36.11
2022-11-13T09:58:55.105Z,36.63
2022-11-13T09:59:55.037Z,37.32
2022-11-13T10:00:55.073Z,37.14
2022-11-13T10:01:54.999Z,37.24
2022-11-13T10:02:54.996Z,36.94
2022-11-13T10:04:01.425Z,36.93
2022-11-13T10:04:56.990Z,37.02
2022-11-13T10:05:54.977Z,36.71
2022-11-13T10:06:54.960Z,36.41
2022-11-13T10:07:54.912Z,34.99
2022-11-13T10:08:54.906Z,36.09
2022-11-13T10:09:54.868Z,34.78
2022-11-13T10:10:56.089Z,34.56
2022-11-13T10:11:55.863Z,34.55
2022-11-13T10:12:54.833Z,34.05
2022-11-13T10:13:54.837Z,32.15
2022-11-13T10:14:54.862Z,32.26
2022-11-13T10:15:54.831Z,32.84
2022-11-13T10:16:54.768Z,31.94
2022-11-13T10:17:56.827Z,30.85
2022-11-13T10:18:55.737Z,30.55
2022-11-13T10:19:54.717Z,31.33
2022-11-13T10:20:54.718Z,30.42
2022-11-13T10:22:07.608Z,28.64
2022-11-13T10:22:56.660Z,29.94
2022-11-13T10:23:54.653Z,29.52
2022-11-13T10:24:54.664Z,28.83
2022-11-13T10:25:54.610Z,29.02
2022-11-13T10:26:54.637Z,29.21
2022-11-13T10:27:54.627Z,29.63
2022-11-13T10:28:54.731Z,29.82
2022-11-13T10:29:54.550Z,30.80
2022-11-13T10:30:54.601Z,30.00
2022-11-13T10:31:54.557Z,30.59
2022-11-13T10:32:54.499Z,29.50
2022-11-13T10:33:54.498Z,30.68
2022-11-13T10:34:54.465Z,29.99
2022-11-13T10:35:54.461Z,30.79
2022-11-13T10:36:54.469Z,30.38
2022-11-13T10:37:54.428Z,29.58
2022-11-13T10:38:54.435Z,30.18
2022-11-13T10:39:54.390Z,29.69
2022-11-13T10:40:54.374Z,30.99
2022-11-13T10:41:54.381Z,29.48
2022-11-13T10:42:54.330Z,29.28
2022-11-13T10:43:54.317Z,29.48
2022-11-13T10:44:54.300Z,29.19
2022-11-13T10:45:54.330Z,30.39
2022-11-13T10:46:54.369Z,29.80
2022-11-13T10:48:07.448Z,31.48
2022-11-13T10:48:56.253Z,32.48
2022-11-13T10:49:54.219Z,29.99
2022-11-13T10:50:54.257Z,30.19
2022-11-13T10:51:54.216Z,31.00
2022-11-13T10:52:54.171Z,29.71
2022-11-13T10:53:54.150Z,29.31
2022-11-13T10:54:54.138Z,29.91
2022-11-13T10:55:54.119Z,29.41
2022-11-13T10:56:54.137Z,29.91
2022-11-13T10:57:56.552Z,30.21
2022-11-13T10:58:55.066Z,29.82
2022-11-13T10:59:54.048Z,30.82
2022-11-13T11:00:54.085Z,31.03
2022-11-13T11:01:54.054Z,30.83
2022-11-13T11:02:54.073Z,30.73
2022-11-13T11:03:54.016Z,32.03
2022-11-13T11:04:54.019Z,30.91
2022-11-13T11:05:53.968Z,30.72
2022-11-13T11:07:18.907Z,30.32
2022-11-13T11:07:56.115Z,30.02
2022-11-13T11:08:53.987Z,29.91
2022-11-13T11:09:53.896Z,29.41
2022-11-13T11:10:53.877Z,29.31
2022-11-13T11:11:53.917Z,30.00
2022-11-13T11:12:53.849Z,30.22
2022-11-13T11:13:53.822Z,30.52
2022-11-13T11:14:53.812Z,29.84
2022-11-13T11:15:53.835Z,29.64
2022-11-13T11:16:53.820Z,28.74
2022-11-13T11:17:53.775Z,29.65
2022-11-13T11:18:53.851Z,30.66
2022-11-13T11:19:53.758Z,30.96
2022-11-13T11:20:53.708Z,31.06
2022-11-13T11:21:53.738Z,30.88
2022-11-13T11:22:53.711Z,31.57
2022-11-13T11:23:56.256Z,32.27
2022-11-13T11:24:54.671Z,32.37
2022-11-13T11:25:53.639Z,31.97
2022-11-13T11:26:53.644Z,32.90
2022-11-13T11:27:53.658Z,34.23
2022-11-13T11:28:53.650Z,34.26
2022-11-13T11:29:53.568Z,34.28
2022-11-13T11:30:53.560Z,35.19
2022-11-13T11:31:53.568Z,35.53
2022-11-13T11:32:53.528Z,35.25
2022-11-13T11:33:53.531Z,35.56
2022-11-13T11:34:58.834Z,35.68
2022-11-13T11:35:55.486Z,36.70
2022-11-13T11:36:53.592Z,37.02
2022-11-13T11:37:53.502Z,37.54
2022-11-13T11:38:53.435Z,38.04
2022-11-13T11:39:53.421Z,39.56
2022-11-13T11:40:53.404Z,39.38
2022-11-13T11:41:53.435Z,39.28
2022-11-13T11:42:53.391Z,39.80
2022-11-13T11:43:53.464Z,40.00
2022-11-13T11:44:53.346Z,39.90
2022-11-13T11:45:53.337Z,39.60
2022-11-13T11:46:53.343Z,40.02
2022-11-13T11:47:53.286Z,39.32
2022-11-13T11:48:53.275Z,40.33
2022-11-13T11:49:53.306Z,39.94
2022-11-13T11:50:53.331Z,40.95
2022-11-13T11:51:53.263Z,41.17
2022-11-13T11:52:54.257Z,41.27
2022-11-13T11:53:53.190Z,41.57
2022-11-13T11:54:53.168Z,39.76
2022-11-13T11:55:53.293Z,41.79
2022-11-13T11:56:53.178Z,39.79
2022-11-13T11:57:53.143Z,39.29
2022-11-13T11:58:54.179Z,40.10
2022-11-13T11:59:53.126Z,41.51
2022-11-13T12:00:53.067Z,40.84
2022-11-13T12:01:53.136Z,41.75
2022-11-13T12:02:53.033Z,41.65
2022-11-13T12:03:53.044Z,41.65
2022-11-13T12:04:53.048Z,42.88
2022-11-13T12:05:53.175Z,41.47
2022-11-13T12:06:53.193Z,41.65
2022-11-13T12:07:52.997Z,42.38
2022-11-13T12:08:52.958Z,42.58
2022-11-13T12:09:53.016Z,42.27
2022-11-13T12:10:52.895Z,43.00
2022-11-13T12:11:53.103Z,43.80
2022-11-13T12:12:52.868Z,44.31
2022-11-13T12:13:53.136Z,44.51
2022-11-13T12:14:52.836Z,44.21
2022-11-13T12:15:52.812Z,44.62
2022-11-13T12:18:11.749Z,44.42
2022-11-13T12:19:11.740Z,43.91
2022-11-13T12:20:12.942Z,44.11
2022-11-13T12:21:12.940Z,44.21
2022-11-13T12:22:12.968Z,44.21
2022-11-13T12:23:12.901Z,43.10
2022-11-13T12:24:12.792Z,43.20
2022-11-13T12:25:12.783Z,42.80
2022-11-13T12:26:12.753Z,43.80
2022-11-13T12:27:12.865Z,43.52
2022-11-13T12:28:12.718Z,44.54
2022-11-13T12:29:12.728Z,44.43
2022-11-13T12:30:12.731Z,44.23
2022-11-13T12:31:12.711Z,44.76
2022-11-13T12:32:12.696Z,45.25
2022-11-13T12:33:12.747Z,43.93
2022-11-13T12:34:12.652Z,44.15
2022-11-13T12:35:12.676Z,44.13
2022-11-13T12:36:12.587Z,44.03
2022-11-13T12:37:12.613Z,43.32
2022-11-13T12:38:12.663Z,43.85
2022-11-13T12:39:12.531Z,44.23
2022-11-13T12:40:12.509Z,43.85
2022-11-13T12:41:12.510Z,42.94
2022-11-13T12:42:12.517Z,43.55
2022-11-13T12:43:12.461Z,44.15
2022-11-13T12:44:12.513Z,43.24
2022-11-13T12:45:12.462Z,43.95
2022-11-13T12:46:12.439Z,43.44
2022-11-13T12:47:12.414Z,43.65
2022-11-13T12:48:12.365Z,43.55
2022-11-13T12:49:12.351Z,44.15
2022-11-13T12:50:12.332Z,44.07
2022-11-13T12:51:12.329Z,43.97
2022-11-13T12:52:12.327Z,43.57
2022-11-13T12:53:12.335Z,44.58